Time;durP1;ratioP1;P1;durP2;ratioP2;P2;SDS_P1;SDS_P2;PMS_P1;PMS_P2;Temp;Humidity;BMP_temperature;BMP_pressure;BME280_temperature;BME280_humidity;BME280_pressure;Samples;Min_cycle;Max_cycle;Signal;HPM_P1;HPM_P2
2023/07/25 00:00:56;;;;;;;0.00;0.00;;;;;;;;;;5071987;28;20112;-79
2023/07/25 00:03:22;;;;;;;0.00;0.00;;;;;;;;;;5072223;28;20049;-79
2023/07/25 00:05:48;;;;;;;0.00;0.00;;;;;;;;;;5071846;28;20181;-79
2023/07/25 00:08:14;;;;;;;0.00;0.00;;;;;;;;;;5072065;28;20052;-79
2023/07/25 00:10:40;;;;;;;0.00;0.00;;;;;;;;;;5073109;28;20048;-79
2023/07/25 00:13:06;;;;;;;0.00;0.00;;;;;;;;;;5073022;28;20452;-80
2023/07/25 00:15:32;;;;;;;0.00;0.00;;;;;;;;;;5072886;28;20041;-79
2023/07/25 00:17:58;;;;;;;0.00;0.00;;;;;;;;;;5073088;28;20036;-80
2023/07/25 00:20:24;;;;;;;0.00;0.00;;;;;;;;;;5071419;28;20094;-79
2023/07/25 00:22:50;;;;;;;0.00;0.00;;;;;;;;;;5073147;28;20028;-79
2023/07/25 00:25:17;;;;;;;0.00;0.00;;;;;;;;;;5071912;28;20127;-80
2023/07/25 00:27:42;;;;;;;0.00;0.00;;;;;;;;;;5072935;28;20037;-79
2023/07/25 00:30:09;;;;;;;0.00;0.00;;;;;;;;;;5072809;28;20047;-80
2023/07/25 00:32:35;;;;;;;0.00;0.00;;;;;;;;;;5072736;28;20123;-79
2023/07/25 00:35:01;;;;;;;0.00;0.00;;;;;;;;;;5072522;28;20040;-79
2023/07/25 00:37:30;;;;;;;0.00;0.00;;;;;;;;;;5072750;28;20093;-79
2023/07/25 00:39:56;;;;;;;0.00;0.00;;;;;;;;;;5071445;28;20602;-79
2023/07/25 00:42:23;;;;;;;0.00;0.00;;;;;;;;;;5071597;28;20063;-79
2023/07/25 00:44:49;;;;;;;0.00;0.00;;;;;;;;;;5072791;28;20162;-79
2023/07/25 00:47:15;;;;;;;0.00;0.00;;;;;;;;;;5071130;28;20078;-79
2023/07/25 00:49:42;;;;;;;0.00;0.00;;;;;;;;;;5054554;28;20557;-80
2023/07/25 00:52:08;;;;;;;0.00;0.00;;;;;;;;;;5072787;28;20040;-79
2023/07/25 00:54:35;;;;;;;0.00;0.00;;;;;;;;;;5072680;28;20495;-80
2023/07/25 00:57:00;;;;;;;0.00;0.00;;;;;;;;;;5072455;28;20045;-79
2023/07/25 00:59:26;;;;;;;0.00;0.00;;;;;;;;;;5071393;28;20037;-79
2023/07/25 01:01:52;;;;;;;0.00;0.00;;;;;;;;;;5072241;28;20043;-79
2023/07/25 01:04:19;;;;;;;0.00;0.00;;;;;;;;;;5072789;28;20046;-79
2023/07/25 01:06:45;;;;;;;0.00;0.00;;;;;;;;;;5072435;28;20041;-79
2023/07/25 01:09:11;;;;;;;0.00;0.00;;;;;;;;;;5072654;28;20121;-79
2023/07/25 01:11:37;;;;;;;0.00;0.00;;;;;;;;;;5071551;28;20052;-79
2023/07/25 01:14:03;;;;;;;0.00;0.00;;;;;;;;;;5072598;28;20044;-80
2023/07/25 01:16:29;;;;;;;0.00;0.00;;;;;;;;;;5072149;28;20239;-80
2023/07/25 01:18:55;;;;;;;0.00;0.00;;;;;;;;;;5072548;28;20413;-80
2023/07/25 01:21:21;;;;;;;0.00;0.00;;;;;;;;;;5070961;28;20057;-78
2023/07/25 01:23:48;;;;;;;0.00;0.00;;;;;;;;;;5072430;28;20041;-80
2023/07/25 01:26:16;;;;;;;0.00;0.00;;;;;;;;;;5070799;28;20574;-79
2023/07/25 01:28:42;;;;;;;0.00;0.00;;;;;;;;;;5071152;28;20082;-79
2023/07/25 01:31:08;;;;;;;0.00;0.00;;;;;;;;;;5071893;28;20104;-79
2023/07/25 01:33:34;;;;;;;0.00;0.00;;;;;;;;;;5070809;28;20116;-80
2023/07/25 01:36:01;;;;;;;0.00;0.00;;;;;;;;;;5070796;28;20048;-79
2023/07/25 01:38:30;;;;;;;0.00;0.00;;;;;;;;;;5072265;28;20094;-79
2023/07/25 01:40:56;;;;;;;0.00;0.00;;;;;;;;;;5070876;28;20040;-79
2023/07/25 01:43:22;;;;;;;0.00;0.00;;;;;;;;;;5072034;28;20078;-80
2023/07/25 01:45:48;;;;;;;0.00;0.00;;;;;;;;;;5071905;28;20384;-80
2023/07/25 01:48:14;;;;;;;0.00;0.00;;;;;;;;;;5072803;28;20059;-79
2023/07/25 01:50:40;;;;;;;0.00;0.00;;;;;;;;;;5074626;28;20039;-79
2023/07/25 01:53:06;;;;;;;0.00;0.00;;;;;;;;;;5075783;28;20526;-80
2023/07/25 01:55:32;;;;;;;0.00;0.00;;;;;;;;;;5075808;28;20460;-79
2023/07/25 01:57:58;;;;;;;0.00;0.00;;;;;;;;;;5075390;28;20058;-79
2023/07/25 02:00:24;;;;;;;0.00;0.00;;;;;;;;;;5075483;28;20087;-80
2023/07/25 02:02:50;;;;;;;0.00;0.00;;;;;;;;;;5074249;28;20420;-79
2023/07/25 02:05:16;;;;;;;0.00;0.00;;;;;;;;;;5075589;28;20156;-80
2023/07/25 02:07:41;;;;;;;0.00;0.00;;;;;;;;;;5075474;28;20040;-79
2023/07/25 02:10:08;;;;;;;0.00;0.00;;;;;;;;;;5075584;28;20394;-80
2023/07/25 02:12:34;;;;;;;0.00;0.00;;;;;;;;;;5075292;28;20040;-79
2023/07/25 02:15:00;;;;;;;0.00;0.00;;;;;;;;;;5074416;28;20440;-79
2023/07/25 02:17:27;;;;;;;0.00;0.00;;;;;;;;;;5075334;28;20036;-80
2023/07/25 02:19:53;;;;;;;0.00;0.00;;;;;;;;;;5075584;28;20032;-79
2023/07/25 02:22:19;;;;;;;0.00;0.00;;;;;;;;;;5075082;28;20541;-80
2023/07/25 02:24:45;;;;;;;0.00;0.00;;;;;;;;;;5075359;28;20115;-79
2023/07/25 02:27:11;;;;;;;0.00;0.00;;;;;;;;;;5073720;28;20056;-79
2023/07/25 02:29:37;;;;;;;0.00;0.00;;;;;;;;;;5074217;28;20045;-80
2023/07/25 02:32:03;;;;;;;0.00;0.00;;;;;;;;;;5073875;28;20052;-79
2023/07/25 02:34:29;;;;;;;0.00;0.00;;;;;;;;;;5075278;28;20044;-79
2023/07/25 02:36:55;;;;;;;0.00;0.00;;;;;;;;;;5073543;28;20044;-79
2023/07/25 02:39:21;;;;;;;0.00;0.00;;;;;;;;;;5075060;28;20044;-80
2023/07/25 02:41:48;;;;;;;0.00;0.00;;;;;;;;;;5074720;28;20380;-79
2023/07/25 02:44:14;;;;;;;0.00;0.00;;;;;;;;;;5073569;28;20048;-79
2023/07/25 02:46:40;;;;;;;0.00;0.00;;;;;;;;;;5074678;28;20053;-79
2023/07/25 02:49:07;;;;;;;0.00;0.00;;;;;;;;;;5073553;28;20049;-80
2023/07/25 02:51:33;;;;;;;0.00;0.00;;;;;;;;;;5074862;28;20123;-79
2023/07/25 02:53:59;;;;;;;0.00;0.00;;;;;;;;;;5074512;28;20459;-79
2023/07/25 02:56:28;;;;;;;0.00;0.00;;;;;;;;;;5056552;28;20049;-80
2023/07/25 02:58:54;;;;;;;0.00;0.00;;;;;;;;;;5073041;28;20040;-79
2023/07/25 03:01:21;;;;;;;0.00;0.00;;;;;;;;;;5073669;28;20106;-80
2023/07/25 03:03:47;;;;;;;0.00;0.00;;;;;;;;;;5073330;28;20039;-79
2023/07/25 03:06:13;;;;;;;0.00;0.00;;;;;;;;;;5073165;28;20131;-79
2023/07/25 03:08:39;;;;;;;0.00;0.00;;;;;;;;;;5074314;28;20040;-79
2023/07/25 03:11:05;;;;;;;0.00;0.00;;;;;;;;;;5072941;28;20045;-79
2023/07/25 03:13:31;;;;;;;0.00;0.00;;;;;;;;;;5074485;28;20369;-80
2023/07/25 03:15:57;;;;;;;0.00;0.00;;;;;;;;;;5073147;28;20158;-79
2023/07/25 03:18:23;;;;;;;0.00;0.00;;;;;;;;;;5072758;28;20473;-79
2023/07/25 03:20:49;;;;;;;0.00;0.00;;;;;;;;;;5073368;28;20032;-79
2023/07/25 03:23:15;;;;;;;0.00;0.00;;;;;;;;;;5073939;28;20037;-79
2023/07/25 03:25:41;;;;;;;0.00;0.00;;;;;;;;;;5072840;28;20044;-79
2023/07/25 03:28:07;;;;;;;0.00;0.00;;;;;;;;;;5074035;28;20344;-79
2023/07/25 03:30:33;;;;;;;0.00;0.00;;;;;;;;;;5072572;28;20105;-79
2023/07/25 03:32:59;;;;;;;0.00;0.00;;;;;;;;;;5073727;28;20111;-79
2023/07/25 03:35:25;;;;;;;0.00;0.00;;;;;;;;;;5073855;28;20476;-81
2023/07/25 03:37:51;;;;;;;0.00;0.00;;;;;;;;;;5073544;28;20492;-79
2023/07/25 03:40:17;;;;;;;0.00;0.00;;;;;;;;;;5072266;28;20041;-79
2023/07/25 03:42:43;;;;;;;0.00;0.00;;;;;;;;;;5073622;28;20396;-79
2023/07/25 03:45:09;;;;;;;0.00;0.00;;;;;;;;;;5073602;28;20095;-78
2023/07/25 03:47:35;;;;;;;0.00;0.00;;;;;;;;;;5071959;28;20045;-79
2023/07/25 03:50:01;;;;;;;0.00;0.00;;;;;;;;;;5072219;28;20044;-79
2023/07/25 03:52:27;;;;;;;0.00;0.00;;;;;;;;;;5072393;28;20073;-79
2023/07/25 03:54:53;;;;;;;0.00;0.00;;;;;;;;;;5073462;28;20033;-79
2023/07/25 03:57:19;;;;;;;0.00;0.00;;;;;;;;;;5072126;28;20047;-79
2023/07/25 03:59:45;;;;;;;0.00;0.00;;;;;;;;;;5071923;28;20040;-79
2023/07/25 04:02:11;;;;;;;0.00;0.00;;;;;;;;;;5072127;28;20051;-79
2023/07/25 04:04:37;;;;;;;0.00;0.00;;;;;;;;;;5073198;28;20086;-79
2023/07/25 04:07:03;;;;;;;0.00;0.00;;;;;;;;;;5073341;28;20310;-80
2023/07/25 04:09:29;;;;;;;0.00;0.00;;;;;;;;;;5070972;28;20041;-80
2023/07/25 04:11:55;;;;;;;0.00;0.00;;;;;;;;;;5072991;28;20040;-79
2023/07/25 04:14:21;;;;;;;0.00;0.00;;;;;;;;;;5071778;28;20082;-79
2023/07/25 04:16:47;;;;;;;0.00;0.00;;;;;;;;;;5071715;28;20059;-79
2023/07/25 04:19:13;;;;;;;0.00;0.00;;;;;;;;;;5072994;28;20115;-79
2023/07/25 04:21:39;;;;;;;0.00;0.00;;;;;;;;;;5073093;28;20249;-79
2023/07/25 04:24:05;;;;;;;0.00;0.00;;;;;;;;;;5071539;28;20392;-79
2023/07/25 04:26:31;;;;;;;0.00;0.00;;;;;;;;;;5071549;28;20090;-79
2023/07/25 04:28:57;;;;;;;0.00;0.00;;;;;;;;;;5071402;28;20044;-79
2023/07/25 04:31:23;;;;;;;0.00;0.00;;;;;;;;;;5072878;28;20037;-79
2023/07/25 04:33:49;;;;;;;0.00;0.00;;;;;;;;;;5072823;28;20119;-80
2023/07/25 04:36:15;;;;;;;0.00;0.00;;;;;;;;;;5072883;28;20033;-78
2023/07/25 04:38:41;;;;;;;0.00;0.00;;;;;;;;;;5071265;28;20224;-79
2023/07/25 04:41:07;;;;;;;0.00;0.00;;;;;;;;;;5072869;28;20037;-79
2023/07/25 04:43:33;;;;;;;0.00;0.00;;;;;;;;;;5071601;28;20117;-79
2023/07/25 04:45:59;;;;;;;0.00;0.00;;;;;;;;;;5072526;28;20048;-80
2023/07/25 04:48:25;;;;;;;0.00;0.00;;;;;;;;;;5072286;28;20052;-80
2023/07/25 04:50:51;;;;;;;0.00;0.00;;;;;;;;;;5071260;28;20500;-80
2023/07/25 04:53:17;;;;;;;0.00;0.00;;;;;;;;;;5072212;28;20086;-80
2023/07/25 04:55:43;;;;;;;0.00;0.00;;;;;;;;;;5072654;28;20041;-80
2023/07/25 04:58:09;;;;;;;0.00;0.00;;;;;;;;;;5072755;28;20455;-82
2023/07/25 05:00:35;;;;;;;0.00;0.00;;;;;;;;;;5072420;28;20037;-82
2023/07/25 05:03:01;;;;;;;0.00;0.00;;;;;;;;;;5070992;28;20063;-82
2023/07/25 05:05:27;;;;;;;0.00;0.00;;;;;;;;;;5071259;28;20051;-82
2023/07/25 05:07:53;;;;;;;0.00;0.00;;;;;;;;;;5072278;28;20044;-82
2023/07/25 05:10:19;;;;;;;0.00;0.00;;;;;;;;;;5070954;28;20048;-82
2023/07/25 05:12:45;;;;;;;0.00;0.00;;;;;;;;;;5070996;28;20045;-82
2023/07/25 05:15:11;;;;;;;0.00;0.00;;;;;;;;;;5072199;28;20055;-82
2023/07/25 05:17:37;;;;;;;0.00;0.00;;;;;;;;;;5071032;28;20426;-82
2023/07/25 05:20:03;;;;;;;0.00;0.00;;;;;;;;;;5070483;28;20032;-82
2023/07/25 05:22:29;;;;;;;0.00;0.00;;;;;;;;;;5074872;28;20090;-82
2023/07/25 05:24:55;;;;;;;0.00;0.00;;;;;;;;;;5075875;28;20041;-82
2023/07/25 05:27:21;;;;;;;0.00;0.00;;;;;;;;;;5076359;28;20067;-82
2023/07/25 05:29:47;;;;;;;0.00;0.00;;;;;;;;;;5075675;28;20044;-82
2023/07/25 05:32:13;;;;;;;0.00;0.00;;;;;;;;;;5074811;28;20058;-81
2023/07/25 05:34:39;;;;;;;0.00;0.00;;;;;;;;;;5074406;28;20395;-82
2023/07/25 05:37:06;;;;;;;0.00;0.00;;;;;;;;;;5076090;28;20131;-81
2023/07/25 05:39:32;;;;;;;0.00;0.00;;;;;;;;;;5074483;28;20044;-81
2023/07/25 05:41:58;;;;;;;0.00;0.00;;;;;;;;;;5074632;28;20460;-81
2023/07/25 05:44:24;;;;;;;0.00;0.00;;;;;;;;;;5075536;28;20041;-82
2023/07/25 05:46:49;;;;;;;0.00;0.00;;;;;;;;;;5074576;28;20063;-80
2023/07/25 05:49:15;;;;;;;0.00;0.00;;;;;;;;;;5074344;28;20468;-80
2023/07/25 05:51:41;;;;;;;0.00;0.00;;;;;;;;;;5075781;28;20048;-80
2023/07/25 05:54:08;;;;;;;0.00;0.00;;;;;;;;;;5074053;28;20147;-81
2023/07/25 05:56:34;;;;;;;0.00;0.00;;;;;;;;;;5075636;28;20048;-82
2023/07/25 05:59:00;;;;;;;0.00;0.00;;;;;;;;;;5075380;28;20049;-81
2023/07/25 06:01:26;;;;;;;0.00;0.00;;;;;;;;;;5074172;28;20102;-81
2023/07/25 06:03:51;;;;;;;0.00;0.00;;;;;;;;;;5075100;28;20403;-81
2023/07/25 06:06:17;;;;;;;0.00;0.00;;;;;;;;;;5074331;28;20051;-81
2023/07/25 06:08:43;;;;;;;0.00;0.00;;;;;;;;;;5074388;28;20049;-81
2023/07/25 06:11:10;;;;;;;0.00;0.00;;;;;;;;;;5073978;28;20479;-82
2023/07/25 06:13:36;;;;;;;0.00;0.00;;;;;;;;;;5073919;28;20044;-83
2023/07/25 06:16:02;;;;;;;0.00;0.00;;;;;;;;;;5075236;28;20188;-82
2023/07/25 06:18:28;;;;;;;0.00;0.00;;;;;;;;;;5075246;28;20430;-81
2023/07/25 06:20:54;;;;;;;0.00;0.00;;;;;;;;;;5073849;28;20055;-82
2023/07/25 06:23:20;;;;;;;0.00;0.00;;;;;;;;;;5073851;28;20043;-81
2023/07/25 06:25:47;;;;;;;0.00;0.00;;;;;;;;;;5073578;28;20040;-82
2023/07/25 06:28:15;;;;;;;0.00;0.00;;;;;;;;;;5075075;28;20448;-81
2023/07/25 06:30:41;;;;;;;0.00;0.00;;;;;;;;;;5057024;28;20037;-84
2023/07/25 06:33:07;;;;;;;0.00;0.00;;;;;;;;;;5072849;28;20055;-81
2023/07/25 06:35:36;;;;;;;0.00;0.00;;;;;;;;;;5073416;28;20116;-81
2023/07/25 06:38:02;;;;;;;0.00;0.00;;;;;;;;;;5073655;28;20133;-81
2023/07/25 06:40:28;;;;;;;0.00;0.00;;;;;;;;;;5073354;28;20530;-81
2023/07/25 06:42:54;;;;;;;0.00;0.00;;;;;;;;;;5075111;28;20055;-81
2023/07/25 06:45:20;;;;;;;0.00;0.00;;;;;;;;;;5074450;28;20125;-81
2023/07/25 06:47:46;;;;;;;0.00;0.00;;;;;;;;;;5073509;28;20067;-81
2023/07/25 06:50:12;;;;;;;0.00;0.00;;;;;;;;;;5074687;28;20114;-80
2023/07/25 06:52:38;;;;;;;0.00;0.00;;;;;;;;;;5074833;28;20040;-80
2023/07/25 06:55:06;;;;;;;0.00;0.00;;;;;;;;;;5072986;28;20047;-81
2023/07/25 06:57:32;;;;;;;0.00;0.00;;;;;;;;;;5073361;28;20056;-80
2023/07/25 06:59:58;;;;;;;0.00;0.00;;;;;;;;;;5072980;28;20500;-81
2023/07/25 07:02:24;;;;;;;0.00;0.00;;;;;;;;;;5074263;28;20067;-81
2023/07/25 07:04:50;;;;;;;0.00;0.00;;;;;;;;;;5072884;28;20041;-81
2023/07/25 07:07:16;;;;;;;0.00;0.00;;;;;;;;;;5074498;28;20155;-82
2023/07/25 07:09:42;;;;;;;0.00;0.00;;;;;;;;;;5072836;28;20088;-85
2023/07/25 07:12:08;;;;;;;0.00;0.00;;;;;;;;;;5056305;28;20041;-80
2023/07/25 07:14:34;;;;;;;0.00;0.00;;;;;;;;;;5074108;28;20044;-80
2023/07/25 07:17:00;;;;;;;0.00;0.00;;;;;;;;;;5074106;28;20082;-81
2023/07/25 07:19:26;;;;;;;0.00;0.00;;;;;;;;;;5074083;28;20063;-81
2023/07/25 07:21:52;;;;;;;0.00;0.00;;;;;;;;;;5072790;28;20484;-79
2023/07/25 07:24:19;;;;;;;0.00;0.00;;;;;;;;;;5074027;28;20098;-79
2023/07/25 07:26:45;;;;;;;0.00;0.00;;;;;;;;;;5072625;28;20046;-79
2023/07/25 07:29:11;;;;;;;0.00;0.00;;;;;;;;;;5074128;28;20068;-79
2023/07/25 07:31:38;;;;;;;0.00;0.00;;;;;;;;;;5072240;28;20076;-85
2023/07/25 07:34:15;;;;;;;0.00;0.00;;;;;;;;;;5072590;28;20052;-81
2023/07/25 07:36:41;;;;;;;0.00;0.00;;;;;;;;;;5055745;28;20076;-81
2023/07/25 07:39:07;;;;;;;0.00;0.00;;;;;;;;;;5072652;28;20047;-81
2023/07/25 07:41:33;;;;;;;0.00;0.00;;;;;;;;;;5072960;28;20044;-81
2023/07/25 07:44:00;;;;;;;0.00;0.00;;;;;;;;;;5072309;28;20041;-82
2023/07/25 07:46:29;;;;;;;0.00;0.00;;;;;;;;;;5073452;28;20056;-82
2023/07/25 07:48:57;;;;;;;0.00;0.00;;;;;;;;;;5073002;28;20047;-81
2023/07/25 07:51:23;;;;;;;0.00;0.00;;;;;;;;;;5073737;28;20036;-81
2023/07/25 07:53:49;;;;;;;0.00;0.00;;;;;;;;;;5055873;28;20040;-81
2023/07/25 07:56:15;;;;;;;0.00;0.00;;;;;;;;;;5073209;28;20044;-81
2023/07/25 07:58:41;;;;;;;0.00;0.00;;;;;;;;;;5071906;28;20098;-81
2023/07/25 08:01:15;;;;;;;0.00;0.00;;;;;;;;;;5073332;28;20040;-81
2023/07/25 08:03:41;;;;;;;0.00;0.00;;;;;;;;;;5072085;28;20045;-82
2023/07/25 08:06:07;;;;;;;0.00;0.00;;;;;;;;;;5073161;28;20055;-81
2023/07/25 08:08:33;;;;;;;0.00;0.00;;;;;;;;;;5073433;28;20040;-81
2023/07/25 08:10:59;;;;;;;0.00;0.00;;;;;;;;;;5071552;28;20041;-82
2023/07/25 08:13:25;;;;;;;0.00;0.00;;;;;;;;;;5073068;28;20033;-81
2023/07/25 08:15:51;;;;;;;0.00;0.00;;;;;;;;;;5071487;28;20119;-81
2023/07/25 08:18:17;;;;;;;0.00;0.00;;;;;;;;;;5073202;28;20081;-81
2023/07/25 08:20:44;;;;;;;0.00;0.00;;;;;;;;;;5072961;28;20108;-81
2023/07/25 08:23:10;;;;;;;0.00;0.00;;;;;;;;;;5055221;28;20119;-80
2023/07/25 08:25:40;;;;;;;0.00;0.00;;;;;;;;;;5072840;28;20391;-81
2023/07/25 08:28:06;;;;;;;0.00;0.00;;;;;;;;;;5071547;28;20048;-81
2023/07/25 08:30:32;;;;;;;0.00;0.00;;;;;;;;;;5071198;28;20048;-81
2023/07/25 08:33:01;;;;;;;0.00;0.00;;;;;;;;;;5072892;28;20044;-81
2023/07/25 08:35:27;;;;;;;0.00;0.00;;;;;;;;;;5071610;28;20094;-81
2023/07/25 08:37:52;;;;;;;0.00;0.00;;;;;;;;;;5071716;28;20037;-81
2023/07/25 08:40:20;;;;;;;0.00;0.00;;;;;;;;;;5072399;28;20441;-81
2023/07/25 08:42:49;;;;;;;0.00;0.00;;;;;;;;;;5072865;28;20041;-81
2023/07/25 08:45:17;;;;;;;0.00;0.00;;;;;;;;;;5072605;28;20044;-81
2023/07/25 08:47:45;;;;;;;0.00;0.00;;;;;;;;;;5054484;28;20049;-81
2023/07/25 08:50:14;;;;;;;0.00;0.00;;;;;;;;;;5072611;28;20046;-81
2023/07/25 08:52:43;;;;;;;0.00;0.00;;;;;;;;;;5071141;28;20080;-81
2023/07/25 08:55:09;;;;;;;0.00;0.00;;;;;;;;;;5072711;28;20036;-81
2023/07/25 08:57:36;;;;;;;0.00;0.00;;;;;;;;;;5070483;28;20044;-81
2023/07/25 09:00:02;;;;;;;0.00;0.00;;;;;;;;;;5071149;28;20036;-81
2023/07/25 09:02:28;;;;;;;0.00;0.00;;;;;;;;;;5070983;28;20056;-81
2023/07/25 09:04:54;;;;;;;0.00;0.00;;;;;;;;;;5071442;28;20457;-81
2023/07/25 09:07:20;;;;;;;0.00;0.00;;;;;;;;;;5070807;28;20040;-82
2023/07/25 09:09:46;;;;;;;0.00;0.00;;;;;;;;;;5072423;28;20105;-81
2023/07/25 09:12:12;;;;;;;0.00;0.00;;;;;;;;;;5072186;28;20072;-81
2023/07/25 09:14:41;;;;;;;0.00;0.00;;;;;;;;;;5071408;28;20098;-82
2023/07/25 09:17:07;;;;;;;0.00;0.00;;;;;;;;;;5053889;28;20098;-81
2023/07/25 09:19:33;;;;;;;0.00;0.00;;;;;;;;;;5071072;28;20072;-81
2023/07/25 09:22:00;;;;;;;0.00;0.00;;;;;;;;;;5070738;28;20032;-81
2023/07/25 09:24:36;;;;;;;0.00;0.00;;;;;;;;;;5072393;28;20040;-81
2023/07/25 09:27:02;;;;;;;0.00;0.00;;;;;;;;;;5071944;28;20110;-81
2023/07/25 09:29:30;;;;;;;0.00;0.00;;;;;;;;;;5070631;28;20072;-81
2023/07/25 09:31:57;;;;;;;0.00;0.00;;;;;;;;;;5071917;28;20484;-81
2023/07/25 09:34:25;;;;;;;0.00;0.00;;;;;;;;;;5072249;28;20036;-83
2023/07/25 09:36:51;;;;;;;0.00;0.00;;;;;;;;;;5070402;28;20045;-82
2023/07/25 09:39:19;;;;;;;0.00;0.00;;;;;;;;;;5070891;28;20133;-82
2023/07/25 09:41:50;;;;;;;0.00;0.00;;;;;;;;;;5071773;28;20041;-82
2023/07/25 09:44:16;;;;;;;0.00;0.00;;;;;;;;;;5070826;28;20036;-82
2023/07/25 09:46:51;;;;;;;0.00;0.00;;;;;;;;;;5071674;28;20053;-82
2023/07/25 09:49:17;;;;;;;;;;;;;;;;;;5071123;28;20488;-82
2023/07/25 09:51:56;;;;;;;0.00;0.00;;;;;;;;;;5070496;28;20040;-82
2023/07/25 09:54:22;;;;;;;0.00;0.00;;;;;;;;;;5070783;28;20055;-82
2023/07/25 09:56:48;;;;;;;0.00;0.00;;;;;;;;;;5071415;28;20041;-82
2023/07/25 09:59:14;;;;;;;0.00;0.00;;;;;;;;;;5070934;28;20041;-82
2023/07/25 10:01:40;;;;;;;0.00;0.00;;;;;;;;;;5053714;28;20044;-81
2023/07/25 10:04:07;;;;;;;0.00;0.00;;;;;;;;;;5070448;28;20480;-82
2023/07/25 10:06:36;;;;;;;0.00;0.00;;;;;;;;;;5070170;28;20045;-82
2023/07/25 10:09:03;;;;;;;0.00;0.00;;;;;;;;;;5072701;28;20120;-82
2023/07/25 10:11:30;;;;;;;0.00;0.00;;;;;;;;;;5075121;28;20054;-82
2023/07/25 10:13:56;;;;;;;0.00;0.00;;;;;;;;;;5074118;28;20402;-82
2023/07/25 10:16:22;;;;;;;0.00;0.00;;;;;;;;;;5075212;28;20043;-81
2023/07/25 10:18:55;;;;;;;0.00;0.00;;;;;;;;;;5073844;28;20040;-81
2023/07/25 10:21:26;;;;;;;0.00;0.00;;;;;;;;;;5074949;28;20503;-81
2023/07/25 10:24:01;;;;;;;0.00;0.00;;;;;;;;;;5073935;28;20089;-81
2023/07/25 10:26:27;;;;;;;0.00;0.00;;;;;;;;;;5074977;28;20068;-82
2023/07/25 10:28:53;;;;;;;0.00;0.00;;;;;;;;;;5073976;28;20356;-81
2023/07/25 10:31:23;;;;;;;0.00;0.00;;;;;;;;;;5073481;28;20515;-82
2023/07/25 10:33:58;;;;;;;0.00;0.00;;;;;;;;;;5075174;28;20082;-81
2023/07/25 10:36:24;;;;;;;0.00;0.00;;;;;;;;;;5073726;28;20114;-81
2023/07/25 10:38:52;;;;;;;0.00;0.00;;;;;;;;;;5056780;28;20048;-81
2023/07/25 10:41:19;;;;;;;0.00;0.00;;;;;;;;;;5073413;28;20129;-80
2023/07/25 10:43:48;;;;;;;0.00;0.00;;;;;;;;;;5073382;28;20051;-81
2023/07/25 10:46:14;;;;;;;0.00;0.00;;;;;;;;;;5073386;28;20095;-81
2023/07/25 10:48:45;;;;;;;0.00;0.00;;;;;;;;;;5073110;28;20121;-81
2023/07/25 10:51:12;;;;;;;0.00;0.00;;;;;;;;;;5074540;28;20040;-81
2023/07/25 10:53:38;;;;;;;0.00;0.00;;;;;;;;;;5073037;28;20098;-81
2023/07/25 10:56:04;;;;;;;0.00;0.00;;;;;;;;;;5074683;28;20040;-83
2023/07/25 10:58:38;;;;;;;0.00;0.00;;;;;;;;;;5073055;28;20047;-83
2023/07/25 11:01:04;;;;;;;0.00;0.00;;;;;;;;;;5074670;28;20048;-83
2023/07/25 11:03:30;;;;;;;0.00;0.00;;;;;;;;;;5074453;28;20040;-83
2023/07/25 11:06:08;;;;;;;0.00;0.00;;;;;;;;;;5073397;28;20083;-81
2023/07/25 11:08:35;;;;;;;0.00;0.00;;;;;;;;;;5074132;28;20396;-81
2023/07/25 11:11:08;;;;;;;0.00;0.00;;;;;;;;;;5074399;28;20043;-81
2023/07/25 11:13:34;;;;;;;0.00;0.00;;;;;;;;;;5056288;28;20097;-81
2023/07/25 11:16:07;;;;;;;0.00;0.00;;;;;;;;;;5074278;28;20040;-83
2023/07/25 11:18:35;;;;;;;0.00;0.00;;;;;;;;;;5073739;28;20059;-83
2023/07/25 11:21:02;;;;;;;0.00;0.00;;;;;;;;;;5072801;28;20036;-81
2023/07/25 11:23:29;;;;;;;0.00;0.00;;;;;;;;;;5072446;28;20097;-81
2023/07/25 11:25:59;;;;;;;0.00;0.00;;;;;;;;;;5073965;28;20032;-81
2023/07/25 11:28:25;;;;;;;0.00;0.00;;;;;;;;;;5073695;28;20518;-81
2023/07/25 11:30:51;;;;;;;0.00;0.00;;;;;;;;;;5072500;28;20123;-81
2023/07/25 11:33:18;;;;;;;0.00;0.00;;;;;;;;;;5073597;28;20047;-81
2023/07/25 11:35:44;;;;;;;0.00;0.00;;;;;;;;;;5072333;28;20036;-81
2023/07/25 11:38:10;;;;;;;0.00;0.00;;;;;;;;;;5072280;28;20076;-81
2023/07/25 11:40:37;;;;;;;0.00;0.00;;;;;;;;;;5073770;28;20058;-81
2023/07/25 11:43:11;;;;;;;0.00;0.00;;;;;;;;;;5073311;28;20119;-81
2023/07/25 11:45:37;;;;;;;0.00;0.00;;;;;;;;;;5073158;28;20052;-81
2023/07/25 11:48:06;;;;;;;0.00;0.00;;;;;;;;;;5073390;28;20127;-81
2023/07/25 11:50:33;;;;;;;0.00;0.00;;;;;;;;;;5072323;28;20426;-81
2023/07/25 11:53:02;;;;;;;0.00;0.00;;;;;;;;;;5071864;28;20530;-81
2023/07/25 11:55:29;;;;;;;0.00;0.00;;;;;;;;;;5073367;28;20404;-81
2023/07/25 11:57:55;;;;;;;0.00;0.00;;;;;;;;;;5073116;28;20123;-81
2023/07/25 12:00:22;;;;;;;0.00;0.00;;;;;;;;;;5072269;28;20048;-81
2023/07/25 12:02:48;;;;;;;0.00;0.00;;;;;;;;;;5072272;28;20102;-81
2023/07/25 12:05:27;;;;;;;0.00;0.00;;;;;;;;;;5072160;28;20477;-80
2023/07/25 12:07:58;;;;;;;0.00;0.00;;;;;;;;;;5071967;28;20060;-81
2023/07/25 12:10:28;;;;;;;0.00;0.00;;;;;;;;;;5072204;28;20052;-81
2023/07/25 12:12:55;;;;;;;0.00;0.00;;;;;;;;;;5073238;28;20056;-81
2023/07/25 12:15:23;;;;;;;0.00;0.00;;;;;;;;;;5072534;28;20093;-81
2023/07/25 12:17:49;;;;;;;0.00;0.00;;;;;;;;;;5071765;28;20077;-80
2023/07/25 12:20:16;;;;;;;0.00;0.00;;;;;;;;;;5072056;28;20040;-81
2023/07/25 12:22:42;;;;;;;0.00;0.00;;;;;;;;;;5071759;28;20047;-81
2023/07/25 12:25:08;;;;;;;0.00;0.00;;;;;;;;;;5072979;28;20044;-81
2023/07/25 12:27:34;;;;;;;0.00;0.00;;;;;;;;;;5071450;28;20049;-79
2023/07/25 12:30:00;;;;;;;0.00;0.00;;;;;;;;;;5071866;28;20127;-81
2023/07/25 12:32:27;;;;;;;0.00;0.00;;;;;;;;;;5054286;28;20456;-81
2023/07/25 12:35:00;;;;;;;0.00;0.00;;;;;;;;;;5072860;28;20123;-80
2023/07/25 12:37:26;;;;;;;0.00;0.00;;;;;;;;;;5071609;28;20075;-81
2023/07/25 12:39:52;;;;;;;0.00;0.00;;;;;;;;;;5072458;28;20075;-80
2023/07/25 12:42:18;;;;;;;0.00;0.00;;;;;;;;;;5071513;28;20036;-81
2023/07/25 12:44:44;;;;;;;0.00;0.00;;;;;;;;;;5054429;28;20064;-81
2023/07/25 12:47:10;;;;;;;0.00;0.00;;;;;;;;;;5055209;28;20048;-80
2023/07/25 12:49:36;;;;;;;0.00;0.00;;;;;;;;;;5072872;28;20533;-81
2023/07/25 12:52:06;;;;;;;0.00;0.00;;;;;;;;;;5071866;28;20483;-83
2023/07/25 12:54:32;;;;;;;0.00;0.00;;;;;;;;;;5072612;28;20495;-81
2023/07/25 12:56:58;;;;;;;0.00;0.00;;;;;;;;;;5071394;28;20109;-81
2023/07/25 12:59:24;;;;;;;0.00;0.00;;;;;;;;;;5071338;28;20048;-81
2023/07/25 13:01:50;;;;;;;0.00;0.00;;;;;;;;;;5072803;28;20115;-80
2023/07/25 13:04:16;;;;;;;0.00;0.00;;;;;;;;;;5072497;28;20032;-82
2023/07/25 13:06:42;;;;;;;0.00;0.00;;;;;;;;;;5071165;28;20407;-83
2023/07/25 13:09:08;;;;;;;0.00;0.00;;;;;;;;;;5072714;28;20079;-83
2023/07/25 13:11:34;;;;;;;0.00;0.00;;;;;;;;;;5071132;28;20040;-82
2023/07/25 13:14:00;;;;;;;0.00;0.00;;;;;;;;;;5072486;28;20037;-82
2023/07/25 13:16:26;;;;;;;0.00;0.00;;;;;;;;;;5072317;28;20076;-82
2023/07/25 13:18:52;;;;;;;0.00;0.00;;;;;;;;;;5071045;28;20400;-80
2023/07/25 13:21:18;;;;;;;0.00;0.00;;;;;;;;;;5072424;28;20040;-80
2023/07/25 13:23:44;;;;;;;0.00;0.00;;;;;;;;;;5072484;28;20115;-81
2023/07/25 13:26:10;;;;;;;0.00;0.00;;;;;;;;;;5072686;28;20337;-81
2023/07/25 13:28:36;;;;;;;0.00;0.00;;;;;;;;;;5070961;28;20472;-80
2023/07/25 13:31:02;;;;;;;0.00;0.00;;;;;;;;;;5071486;28;20050;-82
2023/07/25 13:33:28;;;;;;;0.00;0.00;;;;;;;;;;5072279;28;20491;-81
2023/07/25 13:35:54;;;;;;;0.00;0.00;;;;;;;;;;5071275;28;20049;-81
2023/07/25 13:38:21;;;;;;;0.00;0.00;;;;;;;;;;5072048;28;20052;-81
2023/07/25 13:40:48;;;;;;;0.00;0.00;;;;;;;;;;5072477;28;20036;-80
2023/07/25 13:43:14;;;;;;;0.00;0.00;;;;;;;;;;5074804;28;20045;-80
2023/07/25 13:45:40;;;;;;;0.00;0.00;;;;;;;;;;5075924;28;20076;-81
2023/07/25 13:48:06;;;;;;;0.00;0.00;;;;;;;;;;5074832;28;20047;-80
2023/07/25 13:50:32;;;;;;;0.00;0.00;;;;;;;;;;5074518;28;20048;-80
2023/07/25 13:52:58;;;;;;;0.00;0.00;;;;;;;;;;5074828;28;20051;-81
2023/07/25 13:55:24;;;;;;;0.00;0.00;;;;;;;;;;5074467;28;20388;-80
2023/07/25 13:57:50;;;;;;;0.00;0.00;;;;;;;;;;5074649;28;20072;-80
2023/07/25 14:00:17;;;;;;;0.00;0.00;;;;;;;;;;5074234;28;20036;-81
2023/07/25 14:02:44;;;;;;;0.00;0.00;;;;;;;;;;5075686;28;20048;-81
2023/07/25 14:05:10;;;;;;;0.00;0.00;;;;;;;;;;5074160;28;20052;-81
2023/07/25 14:07:36;;;;;;;0.00;0.00;;;;;;;;;;5074629;28;20044;-81
2023/07/25 14:10:02;;;;;;;0.00;0.00;;;;;;;;;;5074187;28;20052;-80
2023/07/25 14:12:28;;;;;;;0.00;0.00;;;;;;;;;;5075679;28;20506;-81
2023/07/25 14:14:54;;;;;;;0.00;0.00;;;;;;;;;;5075217;28;20036;-80
2023/07/25 14:17:20;;;;;;;0.00;0.00;;;;;;;;;;5075409;28;20374;-81
2023/07/25 14:19:46;;;;;;;0.00;0.00;;;;;;;;;;5075151;28;20479;-80
2023/07/25 14:22:12;;;;;;;0.00;0.00;;;;;;;;;;5074082;28;20055;-80
2023/07/25 14:24:37;;;;;;;0.00;0.00;;;;;;;;;;5073649;28;20482;-81
2023/07/25 14:27:04;;;;;;;0.00;0.00;;;;;;;;;;5074244;28;20040;-80
2023/07/25 14:29:30;;;;;;;0.00;0.00;;;;;;;;;;5057049;28;20392;-81
2023/07/25 14:31:56;;;;;;;0.00;0.00;;;;;;;;;;5073864;28;20040;-81
2023/07/25 14:34:23;;;;;;;0.00;0.00;;;;;;;;;;5073665;28;20047;-80
2023/07/25 14:36:49;;;;;;;0.00;0.00;;;;;;;;;;5073599;28;20076;-81
2023/07/25 14:39:15;;;;;;;0.00;0.00;;;;;;;;;;5074841;28;20113;-81